Colon, Argentina
Current Conditions -  °F | °C
As of 6:00 AM on Tuesday 21 Oct 2014 (Local Time) from SAAR Reporting Station
Clear Clear  
Wind Chill: 59°   Ceiling: Unl
Heat Index: 59°   Visibility: 6mi
Dew Point: 52°   Wind: 2mph
Humidity: 77%   Direction: 20°NNE
Pressure: 30.06"   Gusts: NA
Location:  33.88°S, 61.12°W
Report Text: SAAR 210900Z 02002KT CAVOK 15/11 Q1018
Loading
Personal Weather Stations






























Interactive Weather Map
Tropical Storm Tracking
New forecast layout! Learn more

10-Day Weather Forecast

Advertisements
Track Severe Weather on mobile